sensor_id;sensor_type;location;lat;lon;timestamp;pressure;altitude;pressure_sealevel;temperature;humidity
29045;BME280;16133;49.486;12.176;2023-01-31T00:01:32;97746.97;;;2.09;100.00
29045;BME280;16133;49.486;12.176;2023-01-31T00:04:00;97749.69;;;2.07;100.00
29045;BME280;16133;49.486;12.176;2023-01-31T00:06:36;97733.88;;;2.20;100.00
29045;BME280;16133;49.486;12.176;2023-01-31T00:09:04;97751.59;;;2.05;100.00
29045;BME280;16133;49.486;12.176;2023-01-31T00:11:30;97739.91;;;2.42;100.00
29045;BME280;16133;49.486;12.176;2023-01-31T00:13:57;97753.13;;;2.19;100.00
29045;BME280;16133;49.486;12.176;2023-01-31T00:16:22;97757.06;;;2.13;100.00
29045;BME280;16133;49.486;12.176;2023-01-31T00:18:48;97752.78;;;2.23;100.00
29045;BME280;16133;49.486;12.176;2023-01-31T00:21:16;97753.63;;;2.13;100.00
29045;BME280;16133;49.486;12.176;2023-01-31T00:23:43;97759.44;;;2.16;100.00
29045;BME280;16133;49.486;12.176;2023-01-31T00:26:11;97760.19;;;2.18;100.00
29045;BME280;16133;49.486;12.176;2023-01-31T00:28:38;97756.84;;;2.05;100.00
29045;BME280;16133;49.486;12.176;2023-01-31T00:31:03;97760.28;;;2.17;100.00
29045;BME280;16133;49.486;12.176;2023-01-31T00:33:29;97768.97;;;2.06;100.00
29045;BME280;16133;49.486;12.176;2023-01-31T00:35:54;97760.63;;;2.12;100.00
29045;BME280;16133;49.486;12.176;2023-01-31T00:38:19;97765.19;;;2.10;100.00
29045;BME280;16133;49.486;12.176;2023-01-31T00:40:54;97759.69;;;2.13;100.00
29045;BME280;16133;49.486;12.176;2023-01-31T00:43:20;97757.19;;;2.23;100.00
29045;BME280;16133;49.486;12.176;2023-01-31T00:45:46;97772.06;;;2.33;100.00
29045;BME280;16133;49.486;12.176;2023-01-31T00:48:12;97770.41;;;2.21;100.00
29045;BME280;16133;49.486;12.176;2023-01-31T00:50:37;97770.66;;;2.29;100.00
29045;BME280;16133;49.486;12.176;2023-01-31T00:53:03;97778.25;;;2.21;100.00
29045;BME280;16133;49.486;12.176;2023-01-31T00:55:28;97777.06;;;2.25;100.00
29045;BME280;16133;49.486;12.176;2023-01-31T00:57:53;97799.44;;;2.40;100.00
29045;BME280;16133;49.486;12.176;2023-01-31T01:00:20;97786.81;;;2.34;100.00
29045;BME280;16133;49.486;12.176;2023-01-31T01:02:46;97742.56;;;1.98;100.00
29045;BME280;16133;49.486;12.176;2023-01-31T01:05:11;97783.00;;;2.27;100.00
29045;BME280;16133;49.486;12.176;2023-01-31T01:07:37;97776.94;;;2.27;100.00
29045;BME280;16133;49.486;12.176;2023-01-31T01:10:04;97780.63;;;2.13;100.00
29045;BME280;16133;49.486;12.176;2023-01-31T01:12:29;97782.16;;;2.27;100.00
29045;BME280;16133;49.486;12.176;2023-01-31T01:14:54;97782.41;;;2.35;100.00
29045;BME280;16133;49.486;12.176;2023-01-31T01:17:20;97793.03;;;2.33;100.00
29045;BME280;16133;49.486;12.176;2023-01-31T01:19:45;97788.72;;;2.32;100.00
29045;BME280;16133;49.486;12.176;2023-01-31T01:22:11;97785.53;;;2.29;100.00
29045;BME280;16133;49.486;12.176;2023-01-31T01:24:43;97788.59;;;2.23;100.00
29045;BME280;16133;49.486;12.176;2023-01-31T01:27:09;97786.00;;;2.45;100.00
29045;BME280;16133;49.486;12.176;2023-01-31T01:29:35;97787.28;;;2.51;100.00
29045;BME280;16133;49.486;12.176;2023-01-31T01:32:01;97784.94;;;2.36;100.00
29045;BME280;16133;49.486;12.176;2023-01-31T01:34:26;97792.88;;;2.24;100.00
29045;BME280;16133;49.486;12.176;2023-01-31T01:36:52;97781.13;;;2.40;100.00
29045;BME280;16133;49.486;12.176;2023-01-31T01:39:18;97779.22;;;2.20;100.00
29045;BME280;16133;49.486;12.176;2023-01-31T01:41:44;97785.63;;;2.27;100.00
29045;BME280;16133;49.486;12.176;2023-01-31T01:47:53;97792.63;;;2.38;100.00
29045;BME280;16133;49.486;12.176;2023-01-31T01:50:10;97799.44;;;2.18;100.00
29045;BME280;16133;49.486;12.176;2023-01-31T01:52:45;97785.38;;;2.19;100.00
29045;BME280;16133;49.486;12.176;2023-01-31T01:55:17;97796.09;;;2.27;100.00
29045;BME280;16133;49.486;12.176;2023-01-31T01:57:44;97805.63;;;2.28;100.00
29045;BME280;16133;49.486;12.176;2023-01-31T02:00:22;97810.13;;;2.15;100.00
29045;BME280;16133;49.486;12.176;2023-01-31T02:02:50;97812.06;;;2.35;100.00
29045;BME280;16133;49.486;12.176;2023-01-31T02:05:20;97826.69;;;2.38;100.00
29045;BME280;16133;49.486;12.176;2023-01-31T02:07:47;97809.56;;;2.45;100.00
29045;BME280;16133;49.486;12.176;2023-01-31T02:10:18;97817.88;;;2.50;100.00
29045;BME280;16133;49.486;12.176;2023-01-31T02:12:45;97825.72;;;2.28;100.00
29045;BME280;16133;49.486;12.176;2023-01-31T02:15:11;97819.41;;;2.30;100.00
29045;BME280;16133;49.486;12.176;2023-01-31T02:17:37;97833.09;;;2.23;100.00
29045;BME280;16133;49.486;12.176;2023-01-31T02:28:49;97837.09;;;1.82;100.00
29045;BME280;16133;49.486;12.176;2023-01-31T02:39:43;97850.09;;;1.36;100.00
29045;BME280;16133;49.486;12.176;2023-01-31T02:42:14;97850.50;;;1.43;100.00
29045;BME280;16133;49.486;12.176;2023-01-31T02:55:37;97866.84;;;1.10;100.00
29045;BME280;16133;49.486;12.176;2023-01-31T02:58:26;97858.03;;;1.11;100.00
29045;BME280;16133;49.486;12.176;2023-01-31T03:00:56;97847.53;;;1.00;100.00
29045;BME280;16133;49.486;12.176;2023-01-31T03:03:32;97849.44;;;0.98;100.00
29045;BME280;16133;49.486;12.176;2023-01-31T03:09:10;97842.16;;;0.78;100.00
29045;BME280;16133;49.486;12.176;2023-01-31T03:12:18;97850.38;;;0.61;100.00
29045;BME280;16133;49.486;12.176;2023-01-31T03:20:24;97879.28;;;0.58;100.00
29045;BME280;16133;49.486;12.176;2023-01-31T03:23:01;97879.31;;;0.32;100.00
29045;BME280;16133;49.486;12.176;2023-01-31T03:25:30;97879.31;;;0.45;100.00
29045;BME280;16133;49.486;12.176;2023-01-31T03:28:01;97899.88;;;0.24;100.00
29045;BME280;16133;49.486;12.176;2023-01-31T03:30:31;97899.88;;;0.24;100.00
29045;BME280;16133;49.486;12.176;2023-01-31T03:33:05;97894.75;;;0.61;100.00
29045;BME280;16133;49.486;12.176;2023-01-31T03:35:35;97904.66;;;0.43;100.00
29045;BME280;16133;49.486;12.176;2023-01-31T03:38:13;97913.47;;;0.42;100.00
29045;BME280;16133;49.486;12.176;2023-01-31T03:40:46;97916.25;;;0.52;100.00
29045;BME280;16133;49.486;12.176;2023-01-31T03:43:21;97922.94;;;0.56;100.00
29045;BME280;16133;49.486;12.176;2023-01-31T03:45:57;97925.03;;;0.76;100.00
29045;BME280;16133;49.486;12.176;2023-01-31T03:48:28;97920.81;;;0.86;100.00
29045;BME280;16133;49.486;12.176;2023-01-31T03:50:58;97935.66;;;0.98;100.00
29045;BME280;16133;49.486;12.176;2023-01-31T03:53:31;97933.56;;;1.03;100.00
29045;BME280;16133;49.486;12.176;2023-01-31T03:56:03;97943.56;;;1.09;100.00
29045;BME280;16133;49.486;12.176;2023-01-31T03:58:36;97936.03;;;1.17;100.00
29045;BME280;16133;49.486;12.176;2023-01-31T04:01:05;97945.72;;;1.15;100.00
29045;BME280;16133;49.486;12.176;2023-01-31T04:03:41;97947.69;;;1.37;100.00
29045;BME280;16133;49.486;12.176;2023-01-31T04:06:09;97953.28;;;1.43;100.00
29045;BME280;16133;49.486;12.176;2023-01-31T04:08:35;97952.28;;;1.33;100.00
29045;BME280;16133;49.486;12.176;2023-01-31T04:11:08;97956.84;;;1.42;100.00
29045;BME280;16133;49.486;12.176;2023-01-31T04:13:34;97959.31;;;1.33;100.00
29045;BME280;16133;49.486;12.176;2023-01-31T04:16:00;97960.44;;;1.41;100.00
29045;BME280;16133;49.486;12.176;2023-01-31T04:18:26;97967.75;;;1.36;100.00
29045;BME280;16133;49.486;12.176;2023-01-31T04:20:51;97967.13;;;1.46;100.00
29045;BME280;16133;49.486;12.176;2023-01-31T04:23:16;97961.03;;;1.45;100.00
29045;BME280;16133;49.486;12.176;2023-01-31T04:25:43;97972.66;;;1.41;100.00
29045;BME280;16133;49.486;12.176;2023-01-31T04:28:08;97976.72;;;1.69;100.00
29045;BME280;16133;49.486;12.176;2023-01-31T04:30:34;97976.03;;;1.67;100.00
29045;BME280;16133;49.486;12.176;2023-01-31T04:33:00;97979.63;;;1.77;100.00
29045;BME280;16133;49.486;12.176;2023-01-31T04:35:25;97965.28;;;1.59;100.00
29045;BME280;16133;49.486;12.176;2023-01-31T04:37:50;97973.75;;;1.50;100.00
29045;BME280;16133;49.486;12.176;2023-01-31T04:40:16;97967.75;;;1.36;100.00
29045;BME280;16133;49.486;12.176;2023-01-31T04:42:41;97968.75;;;1.10;100.00
29045;BME280;16133;49.486;12.176;2023-01-31T04:45:07;97968.53;;;1.13;100.00
29045;BME280;16133;49.486;12.176;2023-01-31T04:47:32;97969.63;;;0.98;100.00
29045;BME280;16133;49.486;12.176;2023-01-31T04:49:58;97977.56;;;0.84;100.00
29045;BME280;16133;49.486;12.176;2023-01-31T04:52:23;97965.34;;;0.72;100.00
29045;BME280;16133;49.486;12.176;2023-01-31T04:54:49;97970.97;;;0.91;100.00
29045;BME280;16133;49.486;12.176;2023-01-31T04:57:14;97965.22;;;0.86;100.00
29045;BME280;16133;49.486;12.176;2023-01-31T04:59:39;97954.47;;;0.78;100.00
29045;BME280;16133;49.486;12.176;2023-01-31T05:02:05;97952.38;;;0.58;100.00
29045;BME280;16133;49.486;12.176;2023-01-31T05:04:30;97953.84;;;0.62;100.00
29045;BME280;16133;49.486;12.176;2023-01-31T05:06:56;97955.00;;;0.32;100.00
29045;BME280;16133;49.486;12.176;2023-01-31T05:09:21;97948.84;;;0.33;100.00
29045;BME280;16133;49.486;12.176;2023-01-31T05:11:47;97961.47;;;0.27;100.00
29045;BME280;16133;49.486;12.176;2023-01-31T05:14:13;97957.00;;;0.41;100.00
29045;BME280;16133;49.486;12.176;2023-01-31T05:16:39;97968.91;;;0.45;100.00
29045;BME280;16133;49.486;12.176;2023-01-31T05:19:04;97968.69;;;0.48;100.00
29045;BME280;16133;49.486;12.176;2023-01-31T05:21:30;97975.38;;;0.53;100.00
29045;BME280;16133;49.486;12.176;2023-01-31T05:24:15;97980.50;;;0.67;100.00
29045;BME280;16133;49.486;12.176;2023-01-31T05:26:40;97983.94;;;0.80;100.00
29045;BME280;16133;49.486;12.176;2023-01-31T05:29:06;97968.91;;;0.83;100.00
29045;BME280;16133;49.486;12.176;2023-01-31T05:31:31;97965.31;;;0.84;100.00
29045;BME280;16133;49.486;12.176;2023-01-31T05:33:57;97964.38;;;0.85;100.00
29045;BME280;16133;49.486;12.176;2023-01-31T05:36:22;97971.28;;;0.86;100.00
29045;BME280;16133;49.486;12.176;2023-01-31T05:38:47;97985.91;;;0.89;100.00
29045;BME280;16133;49.486;12.176;2023-01-31T05:41:14;97986.44;;;0.94;100.00
29045;BME280;16133;49.486;12.176;2023-01-31T05:43:40;97982.06;;;0.94;100.00
29045;BME280;16133;49.486;12.176;2023-01-31T05:46:05;97993.13;;;0.98;100.00
29045;BME280;16133;49.486;12.176;2023-01-31T05:48:31;97997.19;;;1.02;100.00
29045;BME280;16133;49.486;12.176;2023-01-31T05:50:56;97989.13;;;1.05;100.00
29045;BME280;16133;49.486;12.176;2023-01-31T05:53:21;97992.78;;;1.15;100.00
29045;BME280;16133;49.486;12.176;2023-01-31T05:55:47;97986.75;;;1.15;100.00
29045;BME280;16133;49.486;12.176;2023-01-31T05:58:14;97994.00;;;1.35;100.00
29045;BME280;16133;49.486;12.176;2023-01-31T06:00:39;97982.63;;;1.23;100.00
29045;BME280;16133;49.486;12.176;2023-01-31T06:03:04;97989.13;;;1.05;100.00
29045;BME280;16133;49.486;12.176;2023-01-31T06:05:30;97983.50;;;0.86;100.00
29045;BME280;16133;49.486;12.176;2023-01-31T06:07:55;97996.69;;;0.72;100.00
29045;BME280;16133;49.486;12.176;2023-01-31T06:10:21;97993.66;;;0.53;100.00
29045;BME280;16133;49.486;12.176;2023-01-31T06:12:46;97999.59;;;0.42;100.00
29045;BME280;16133;49.486;12.176;2023-01-31T06:15:12;98001.88;;;0.34;100.00
29045;BME280;16133;49.486;12.176;2023-01-31T06:17:37;98001.38;;;0.41;100.00
29045;BME280;16133;49.486;12.176;2023-01-31T06:20:03;98008.56;;;0.51;100.00
29045;BME280;16133;49.486;12.176;2023-01-31T06:22:29;98011.41;;;0.60;100.00
29045;BME280;16133;49.486;12.176;2023-01-31T06:24:54;98018.94;;;0.65;100.00
29045;BME280;16133;49.486;12.176;2023-01-31T06:27:19;98021.13;;;0.71;100.00
29045;BME280;16133;49.486;12.176;2023-01-31T06:29:45;98025.94;;;0.77;100.00
29045;BME280;16133;49.486;12.176;2023-01-31T06:32:10;98031.28;;;0.88;100.00
29045;BME280;16133;49.486;12.176;2023-01-31T06:34:35;98025.63;;;0.94;100.00
29045;BME280;16133;49.486;12.176;2023-01-31T06:37:01;98036.16;;;0.92;100.00
29045;BME280;16133;49.486;12.176;2023-01-31T06:39:26;98032.41;;;0.96;100.00
29045;BME280;16133;49.486;12.176;2023-01-31T06:41:51;98033.91;;;0.88;100.00
29045;BME280;16133;49.486;12.176;2023-01-31T06:44:17;98041.59;;;0.77;100.00
29045;BME280;16133;49.486;12.176;2023-01-31T06:46:42;98033.16;;;0.86;100.00
29045;BME280;16133;49.486;12.176;2023-01-31T06:49:07;98031.69;;;0.82;100.00
29045;BME280;16133;49.486;12.176;2023-01-31T06:51:33;98037.53;;;0.98;100.00
29045;BME280;16133;49.486;12.176;2023-01-31T06:53:58;98050.38;;;1.01;100.00
29045;BME280;16133;49.486;12.176;2023-01-31T06:56:24;98032.09;;;0.88;100.00
29045;BME280;16133;49.486;12.176;2023-01-31T06:58:49;98046.84;;;0.89;100.00
29045;BME280;16133;49.486;12.176;2023-01-31T07:01:14;98045.69;;;0.93;100.00
29045;BME280;16133;49.486;12.176;2023-01-31T07:03:40;98047.25;;;0.96;100.00
29045;BME280;16133;49.486;12.176;2023-01-31T07:06:07;98051.53;;;0.97;100.00
29045;BME280;16133;49.486;12.176;2023-01-31T07:08:33;98047.69;;;1.03;100.00
29045;BME280;16133;49.486;12.176;2023-01-31T07:10:58;98050.91;;;1.06;100.00
29045;BME280;16133;49.486;12.176;2023-01-31T07:13:26;98056.47;;;1.14;100.00
29045;BME280;16133;49.486;12.176;2023-01-31T07:15:51;98062.41;;;1.16;100.00
29045;BME280;16133;49.486;12.176;2023-01-31T07:18:16;98056.97;;;1.19;100.00
29045;BME280;16133;49.486;12.176;2023-01-31T07:20:42;98058.94;;;1.28;100.00
29045;BME280;16133;49.486;12.176;2023-01-31T07:23:07;98068.97;;;1.34;100.00
29045;BME280;16133;49.486;12.176;2023-01-31T07:25:34;98056.66;;;1.36;100.00
29045;BME280;16133;49.486;12.176;2023-01-31T07:28:00;98048.56;;;1.39;100.00
29045;BME280;16133;49.486;12.176;2023-01-31T07:30:26;98058.50;;;1.47;100.00
29045;BME280;16133;49.486;12.176;2023-01-31T07:32:52;98052.84;;;1.53;100.00
29045;BME280;16133;49.486;12.176;2023-01-31T07:35:18;98056.09;;;1.57;100.00
29045;BME280;16133;49.486;12.176;2023-01-31T07:37:43;98049.91;;;1.58;100.00
29045;BME280;16133;49.486;12.176;2023-01-31T07:40:11;98058.16;;;1.64;100.00
29045;BME280;16133;49.486;12.176;2023-01-31T07:42:37;98054.41;;;1.68;100.00
29045;BME280;16133;49.486;12.176;2023-01-31T07:45:03;98049.03;;;1.70;100.00
29045;BME280;16133;49.486;12.176;2023-01-31T07:47:28;98059.50;;;1.70;100.00
29045;BME280;16133;49.486;12.176;2023-01-31T07:49:54;98050.25;;;1.77;100.00
29045;BME280;16133;49.486;12.176;2023-01-31T07:52:19;98066.25;;;1.85;100.00
29045;BME280;16133;49.486;12.176;2023-01-31T07:54:45;98063.69;;;1.96;100.00
29045;BME280;16133;49.486;12.176;2023-01-31T07:57:10;98063.06;;;2.05;100.00
29045;BME280;16133;49.486;12.176;2023-01-31T07:59:37;98071.19;;;2.13;100.00
29045;BME280;16133;49.486;12.176;2023-01-31T08:02:02;98067.16;;;2.20;100.00
29045;BME280;16133;49.486;12.176;2023-01-31T08:04:46;98075.31;;;2.28;100.00
29045;BME280;16133;49.486;12.176;2023-01-31T08:07:11;98078.53;;;2.32;100.00
29045;BME280;16133;49.486;12.176;2023-01-31T08:09:37;98088.13;;;2.44;100.00
29045;BME280;16133;49.486;12.176;2023-01-31T08:12:04;98090.53;;;2.58;100.00
29045;BME280;16133;49.486;12.176;2023-01-31T08:14:29;98096.38;;;2.62;100.00
29045;BME280;16133;49.486;12.176;2023-01-31T08:16:55;98100.34;;;2.67;100.00
29045;BME280;16133;49.486;12.176;2023-01-31T08:19:21;98098.44;;;2.69;100.00
29045;BME280;16133;49.486;12.176;2023-01-31T08:21:47;98088.84;;;2.81;100.00
29045;BME280;16133;49.486;12.176;2023-01-31T08:24:12;98103.53;;;2.95;100.00
29045;BME280;16133;49.486;12.176;2023-01-31T08:26:38;98101.53;;;2.98;100.00
29045;BME280;16133;49.486;12.176;2023-01-31T08:29:03;98098.91;;;3.09;100.00
29045;BME280;16133;49.486;12.176;2023-01-31T08:31:28;98095.97;;;3.25;99.35
29045;BME280;16133;49.486;12.176;2023-01-31T08:33:54;98091.31;;;3.40;98.58
29045;BME280;16133;49.486;12.176;2023-01-31T08:36:28;98083.94;;;3.56;98.52
29045;BME280;16133;49.486;12.176;2023-01-31T08:38:56;98092.75;;;3.66;98.82
29045;BME280;16133;49.486;12.176;2023-01-31T08:41:23;98090.63;;;3.71;98.47
29045;BME280;16133;49.486;12.176;2023-01-31T08:43:49;98070.81;;;3.67;97.47
29045;BME280;16133;49.486;12.176;2023-01-31T08:46:14;98080.47;;;3.66;96.63
29045;BME280;16133;49.486;12.176;2023-01-31T08:48:40;98078.69;;;3.56;95.40
29045;BME280;16133;49.486;12.176;2023-01-31T08:51:09;98075.34;;;3.54;94.24
29045;BME280;16133;49.486;12.176;2023-01-31T08:53:39;98066.03;;;3.61;93.33
29045;BME280;16133;49.486;12.176;2023-01-31T08:56:06;98084.16;;;3.53;93.17
29045;BME280;16133;49.486;12.176;2023-01-31T08:58:34;98081.91;;;3.48;94.61
29045;BME280;16133;49.486;12.176;2023-01-31T09:01:05;98072.13;;;3.50;95.95
29045;BME280;16133;49.486;12.176;2023-01-31T09:03:31;98083.81;;;3.57;96.48
29045;BME280;16133;49.486;12.176;2023-01-31T09:06:01;98072.94;;;3.73;94.43
29045;BME280;16133;49.486;12.176;2023-01-31T09:08:28;98076.16;;;3.76;94.28
29045;BME280;16133;49.486;12.176;2023-01-31T09:10:54;98079.16;;;3.83;94.81
29045;BME280;16133;49.486;12.176;2023-01-31T09:13:20;98081.66;;;3.84;93.32
29045;BME280;16133;49.486;12.176;2023-01-31T09:15:46;98071.97;;;3.96;93.70
29045;BME280;16133;49.486;12.176;2023-01-31T09:18:12;98070.75;;;4.00;93.06
29045;BME280;16133;49.486;12.176;2023-01-31T09:20:37;98070.63;;;4.13;92.65
29045;BME280;16133;49.486;12.176;2023-01-31T09:23:02;98079.34;;;4.13;90.45
29045;BME280;16133;49.486;12.176;2023-01-31T09:25:28;98074.94;;;3.92;92.53
29045;BME280;16133;49.486;12.176;2023-01-31T09:27:53;98087.97;;;3.93;93.01
29045;BME280;16133;49.486;12.176;2023-01-31T09:30:19;98087.50;;;3.77;92.37
29045;BME280;16133;49.486;12.176;2023-01-31T09:32:45;98079.16;;;3.72;93.01
29045;BME280;16133;49.486;12.176;2023-01-31T09:35:12;98078.78;;;3.88;92.32
29045;BME280;16133;49.486;12.176;2023-01-31T09:37:37;98073.38;;;4.00;91.28
29045;BME280;16133;49.486;12.176;2023-01-31T09:40:04;98080.44;;;4.00;91.78
29045;BME280;16133;49.486;12.176;2023-01-31T09:42:37;98077.56;;;4.14;92.54
29045;BME280;16133;49.486;12.176;2023-01-31T09:45:14;98080.72;;;4.28;90.66
29045;BME280;16133;49.486;12.176;2023-01-31T09:47:53;98082.09;;;4.44;90.36
29045;BME280;16133;49.486;12.176;2023-01-31T09:50:26;98078.03;;;4.51;90.15
29045;BME280;16133;49.486;12.176;2023-01-31T09:52:54;98082.00;;;4.66;89.33
29045;BME280;16133;49.486;12.176;2023-01-31T09:55:35;98076.81;;;4.75;88.78
29045;BME280;16133;49.486;12.176;2023-01-31T09:58:13;98083.06;;;4.74;86.51
29045;BME280;16133;49.486;12.176;2023-01-31T10:00:47;98080.28;;;4.76;86.89
29045;BME280;16133;49.486;12.176;2023-01-31T10:03:44;98073.75;;;4.70;87.16
29045;BME280;16133;49.486;12.176;2023-01-31T10:06:39;98075.69;;;4.37;86.95
29045;BME280;16133;49.486;12.176;2023-01-31T10:09:16;98077.56;;;4.46;87.73
29045;BME280;16133;49.486;12.176;2023-01-31T10:11:50;98064.41;;;4.46;87.63
29045;BME280;16133;49.486;12.176;2023-01-31T10:14:44;98057.94;;;4.50;87.29
29045;BME280;16133;49.486;12.176;2023-01-31T10:17:24;98064.66;;;4.43;87.37
29045;BME280;16133;49.486;12.176;2023-01-31T10:19:57;98059.66;;;4.40;87.33
29045;BME280;16133;49.486;12.176;2023-01-31T10:22:35;98072.56;;;4.43;87.42
29045;BME280;16133;49.486;12.176;2023-01-31T10:25:31;98069.09;;;4.42;87.01
29045;BME280;16133;49.486;12.176;2023-01-31T10:28:03;98077.34;;;4.38;87.38
29045;BME280;16133;49.486;12.176;2023-01-31T10:30:43;98072.09;;;4.38;87.19
29045;BME280;16133;49.486;12.176;2023-01-31T10:36:18;98067.00;;;4.25;85.98
29045;BME280;16133;49.486;12.176;2023-01-31T10:38:56;98064.25;;;4.26;86.45
29045;BME280;16133;49.486;12.176;2023-01-31T10:41:46;98063.63;;;4.34;86.87
29045;BME280;16133;49.486;12.176;2023-01-31T10:44:29;98056.56;;;4.34;85.76
29045;BME280;16133;49.486;12.176;2023-01-31T10:46:59;98052.47;;;4.42;84.34
29045;BME280;16133;49.486;12.176;2023-01-31T10:49:25;98044.22;;;4.46;84.25
29045;BME280;16133;49.486;12.176;2023-01-31T10:54:37;98021.19;;;4.70;83.40
29045;BME280;16133;49.486;12.176;2023-01-31T10:57:05;98027.63;;;4.87;83.08
29045;BME280;16133;49.486;12.176;2023-01-31T10:59:35;98012.44;;;4.91;81.83
29045;BME280;16133;49.486;12.176;2023-01-31T11:02:01;98014.19;;;5.01;82.05
29045;BME280;16133;49.486;12.176;2023-01-31T11:04:39;98001.41;;;5.27;81.99
29045;BME280;16133;49.486;12.176;2023-01-31T11:07:05;97995.50;;;5.35;80.29
29045;BME280;16133;49.486;12.176;2023-01-31T11:09:40;97988.25;;;5.17;80.66
29045;BME280;16133;49.486;12.176;2023-01-31T11:12:07;97985.38;;;5.30;80.53
29045;BME280;16133;49.486;12.176;2023-01-31T11:14:35;97975.94;;;5.27;79.76
29045;BME280;16133;49.486;12.176;2023-01-31T11:17:05;97964.97;;;5.22;80.20
29045;BME280;16133;49.486;12.176;2023-01-31T11:19:51;97963.81;;;5.36;79.83
29045;BME280;16133;49.486;12.176;2023-01-31T11:24:48;97958.59;;;5.65;78.37
29045;BME280;16133;49.486;12.176;2023-01-31T11:27:42;97956.13;;;5.63;77.51
29045;BME280;16133;49.486;12.176;2023-01-31T11:32:44;97953.53;;;5.33;78.25
29045;BME280;16133;49.486;12.176;2023-01-31T11:37:52;97933.94;;;5.66;78.35
29045;BME280;16133;49.486;12.176;2023-01-31T11:43:05;97944.13;;;5.99;76.29
29045;BME280;16133;49.486;12.176;2023-01-31T11:45:35;97937.34;;;5.97;75.67
29045;BME280;16133;49.486;12.176;2023-01-31T11:50:39;97938.59;;;5.93;75.31
29045;BME280;16133;49.486;12.176;2023-01-31T11:53:16;97924.69;;;5.81;74.75
29045;BME280;16133;49.486;12.176;2023-01-31T11:55:43;97929.38;;;5.58;76.09
29045;BME280;16133;49.486;12.176;2023-01-31T11:58:24;97922.31;;;5.19;77.15
29045;BME280;16133;49.486;12.176;2023-01-31T12:01:00;97927.63;;;5.28;77.41
29045;BME280;16133;49.486;12.176;2023-01-31T12:03:28;97928.03;;;5.24;77.97
29045;BME280;16133;49.486;12.176;2023-01-31T12:06:06;97922.06;;;5.22;77.73
29045;BME280;16133;49.486;12.176;2023-01-31T12:08:37;97918.69;;;5.10;77.75
29045;BME280;16133;49.486;12.176;2023-01-31T12:11:05;97913.31;;;4.81;78.50
29045;BME280;16133;49.486;12.176;2023-01-31T12:13:31;97904.97;;;4.67;78.97
29045;BME280;16133;49.486;12.176;2023-01-31T12:15:59;97901.00;;;4.52;79.59
29045;BME280;16133;49.486;12.176;2023-01-31T12:26:44;97861.22;;;4.96;79.33
29045;BME280;16133;49.486;12.176;2023-01-31T12:42:57;97859.63;;;4.74;79.82
29045;BME280;16133;49.486;12.176;2023-01-31T12:45:51;97860.13;;;4.68;79.90
29045;BME280;16133;49.486;12.176;2023-01-31T12:51:15;97843.44;;;4.79;79.93
29045;BME280;16133;49.486;12.176;2023-01-31T12:59:32;97854.03;;;4.98;77.51
29045;BME280;16133;49.486;12.176;2023-01-31T13:04:47;97844.19;;;5.00;76.54
29045;BME280;16133;49.486;12.176;2023-01-31T13:07:34;97865.19;;;4.91;76.67
29045;BME280;16133;49.486;12.176;2023-01-31T13:10:05;97869.31;;;4.83;76.27
29045;BME280;16133;49.486;12.176;2023-01-31T13:12:34;97857.94;;;4.73;76.48
29045;BME280;16133;49.486;12.176;2023-01-31T13:17:51;97870.81;;;4.25;78.47
29045;BME280;16133;49.486;12.176;2023-01-31T13:20:29;97880.63;;;4.23;79.49
29045;BME280;16133;49.486;12.176;2023-01-31T13:23:00;97884.34;;;4.00;79.48
29045;BME280;16133;49.486;12.176;2023-01-31T13:27:58;97883.50;;;4.00;81.16
29045;BME280;16133;49.486;12.176;2023-01-31T13:33:39;97864.81;;;3.93;81.97
29045;BME280;16133;49.486;12.176;2023-01-31T13:36:48;97863.53;;;3.88;83.44
29045;BME280;16133;49.486;12.176;2023-01-31T13:39:22;97867.66;;;4.01;81.41
29045;BME280;16133;49.486;12.176;2023-01-31T13:41:49;97868.34;;;4.03;81.16
29045;BME280;16133;49.486;12.176;2023-01-31T13:44:15;97872.44;;;3.96;82.10
29045;BME280;16133;49.486;12.176;2023-01-31T13:49:27;97860.00;;;3.77;82.79
29045;BME280;16133;49.486;12.176;2023-01-31T13:51:57;97857.13;;;3.80;83.60
29045;BME280;16133;49.486;12.176;2023-01-31T13:54:40;97841.25;;;3.82;81.32
29045;BME280;16133;49.486;12.176;2023-01-31T13:57:24;97857.75;;;3.73;82.61
29045;BME280;16133;49.486;12.176;2023-01-31T14:00:07;97861.00;;;3.65;83.56
29045;BME280;16133;49.486;12.176;2023-01-31T14:02:34;97866.63;;;3.61;84.62
29045;BME280;16133;49.486;12.176;2023-01-31T14:10:50;97857.84;;;3.51;85.85
29045;BME280;16133;49.486;12.176;2023-01-31T14:13:26;97847.66;;;3.36;87.46
29045;BME280;16133;49.486;12.176;2023-01-31T14:16:01;97842.81;;;3.21;87.08
29045;BME280;16133;49.486;12.176;2023-01-31T14:18:40;97831.03;;;3.04;89.63
29045;BME280;16133;49.486;12.176;2023-01-31T14:23:59;97790.63;;;3.07;91.62
29045;BME280;16133;49.486;12.176;2023-01-31T14:29:07;97799.97;;;3.31;90.96
29045;BME280;16133;49.486;12.176;2023-01-31T14:31:33;97805.06;;;3.44;91.27
29045;BME280;16133;49.486;12.176;2023-01-31T14:33:59;97798.66;;;3.37;91.27
29045;BME280;16133;49.486;12.176;2023-01-31T14:47:54;97806.00;;;3.11;91.53
29045;BME280;16133;49.486;12.176;2023-01-31T14:58:28;97783.41;;;2.88;93.72
29045;BME280;16133;49.486;12.176;2023-01-31T15:00:57;97786.16;;;2.86;93.42
29045;BME280;16133;49.486;12.176;2023-01-31T15:03:33;97792.84;;;2.91;93.27
29045;BME280;16133;49.486;12.176;2023-01-31T15:06:07;97801.41;;;2.81;93.56
29045;BME280;16133;49.486;12.176;2023-01-31T15:08:47;97803.44;;;2.78;93.54
29045;BME280;16133;49.486;12.176;2023-01-31T15:21:29;97775.13;;;2.50;96.35
29045;BME280;16133;49.486;12.176;2023-01-31T15:23:58;97780.59;;;2.58;97.47
29045;BME280;16133;49.486;12.176;2023-01-31T15:26:27;97778.13;;;2.56;97.40
29045;BME280;16133;49.486;12.176;2023-01-31T15:28:53;97776.47;;;2.55;97.47
29045;BME280;16133;49.486;12.176;2023-01-31T15:31:39;97773.09;;;2.53;98.16